createdAt,value
2023-03-29T00:02:37.766Z,2.50
2023-03-29T00:05:07.024Z,2.33
2023-03-29T00:07:39.654Z,2.50
2023-03-29T00:10:07.880Z,2.05
2023-03-29T00:12:45.845Z,2.17
2023-03-29T00:15:13.370Z,2.20
2023-03-29T00:17:40.355Z,2.05
2023-03-29T00:20:10.536Z,2.25
2023-03-29T00:22:44.643Z,2.42
2023-03-29T00:25:14.972Z,1.98
2023-03-29T00:27:43.237Z,2.13
2023-03-29T00:30:11.069Z,2.40
2023-03-29T00:32:38.162Z,2.10
2023-03-29T00:35:06.749Z,2.08
2023-03-29T00:37:37.266Z,2.17
2023-03-29T00:40:19.432Z,2.20
2023-03-29T00:42:53.143Z,1.98
2023-03-29T00:45:48.034Z,2.20
2023-03-29T00:48:33.087Z,2.05
2023-03-29T00:51:32.535Z,2.10
2023-03-29T00:54:34.011Z,1.73
2023-03-29T00:57:08.244Z,1.83
2023-03-29T00:59:44.044Z,1.70
2023-03-29T01:02:11.740Z,2.03
2023-03-29T01:04:55.073Z,1.88
2023-03-29T01:07:35.175Z,1.85
2023-03-29T01:10:25.430Z,1.88
2023-03-29T01:13:14.828Z,1.77
2023-03-29T01:16:01.779Z,2.10
2023-03-29T01:18:31.961Z,2.05
2023-03-29T01:21:19.710Z,2.05
2023-03-29T01:24:05.534Z,1.80
2023-03-29T01:27:07.863Z,1.77
2023-03-29T01:30:26.821Z,1.88
2023-03-29T01:33:05.997Z,1.83
2023-03-29T01:36:13.270Z,1.65
2023-03-29T01:38:49.866Z,1.80
2023-03-29T01:41:16.866Z,1.65
2023-03-29T01:44:25.475Z,2.05
2023-03-29T01:47:24.483Z,1.90
2023-03-29T01:53:36.785Z,1.80
2023-03-29T01:56:26.701Z,1.70
2023-03-29T01:59:15.566Z,1.77
2023-03-29T02:01:56.874Z,1.85
2023-03-29T02:04:31.668Z,2.08
2023-03-29T02:07:10.925Z,1.85
2023-03-29T02:09:46.193Z,2.17
2023-03-29T02:12:17.338Z,1.85
2023-03-29T02:14:49.374Z,1.77
2023-03-29T02:17:22.082Z,1.92
2023-03-29T02:20:12.082Z,1.80
2023-03-29T02:22:48.007Z,1.83
2023-03-29T02:25:20.405Z,1.90
2023-03-29T02:27:50.856Z,1.95
2023-03-29T02:31:06.342Z,1.70
2023-03-29T02:34:20.595Z,1.92
2023-03-29T02:37:30.349Z,1.80
2023-03-29T02:40:13.898Z,1.90
2023-03-29T02:43:03.542Z,1.83
2023-03-29T02:45:33.890Z,1.92
2023-03-29T02:48:05.958Z,1.85
2023-03-29T02:50:42.148Z,1.80
2023-03-29T02:53:33.927Z,1.80
2023-03-29T02:56:02.527Z,1.80
2023-03-29T02:58:34.893Z,1.73
2023-03-29T03:01:07.086Z,1.60
2023-03-29T03:03:35.993Z,1.77
2023-03-29T03:06:03.282Z,1.73
2023-03-29T03:09:10.457Z,1.67
2023-03-29T03:11:39.976Z,1.70
2023-03-29T03:14:13.758Z,1.70
2023-03-29T03:16:43.610Z,2.10
2023-03-29T03:19:14.191Z,1.80
2023-03-29T03:21:41.216Z,1.77
2023-03-29T03:24:10.878Z,1.65
2023-03-29T03:26:39.250Z,1.63
2023-03-29T03:29:08.565Z,1.60
2023-03-29T03:31:35.396Z,1.70
2023-03-29T03:34:11.692Z,2.00
2023-03-29T03:36:38.890Z,1.77
2023-03-29T03:39:07.602Z,1.90
2023-03-29T03:41:45.102Z,1.67
2023-03-29T03:44:13.442Z,1.90
2023-03-29T03:46:41.062Z,1.90
2023-03-29T03:49:15.084Z,1.92
2023-03-29T03:51:45.745Z,1.70
2023-03-29T03:54:16.684Z,2.00
2023-03-29T03:56:43.896Z,2.00
2023-03-29T03:59:11.285Z,1.55
2023-03-29T04:01:43.874Z,2.00
2023-03-29T04:04:15.509Z,1.95
2023-03-29T04:09:13.447Z,2.25
2023-03-29T04:11:43.445Z,2.20
2023-03-29T04:14:27.007Z,1.92
2023-03-29T04:17:04.453Z,2.10
2023-03-29T04:19:41.786Z,2.15
2023-03-29T04:22:13.441Z,2.20
2023-03-29T04:24:43.432Z,2.15
2023-03-29T04:27:10.677Z,2.47
2023-03-29T04:29:39.451Z,2.00
2023-03-29T04:32:06.687Z,1.85
2023-03-29T04:34:45.914Z,1.90
2023-03-29T04:37:32.922Z,1.88
2023-03-29T04:40:05.134Z,1.92
2023-03-29T04:42:42.920Z,1.85
2023-03-29T04:45:34.087Z,1.90
2023-03-29T04:48:47.334Z,2.00
2023-03-29T04:55:28.562Z,1.90
2023-03-29T04:58:33.982Z,2.00
2023-03-29T05:01:39.423Z,2.00
2023-03-29T05:04:06.592Z,2.30
2023-03-29T05:07:01.420Z,2.05
2023-03-29T05:09:48.861Z,2.42
2023-03-29T05:15:16.502Z,2.00
2023-03-29T05:17:54.609Z,1.77
2023-03-29T05:20:26.307Z,2.30
2023-03-29T05:22:59.007Z,1.95
2023-03-29T05:25:28.440Z,2.33
2023-03-29T05:28:02.709Z,2.20
2023-03-29T05:30:32.962Z,2.22
2023-03-29T05:33:02.389Z,2.50
2023-03-29T05:35:35.456Z,2.60
2023-03-29T05:38:10.130Z,2.90
2023-03-29T05:40:37.578Z,2.40
2023-03-29T05:43:04.832Z,2.30
2023-03-29T05:45:38.218Z,3.03
2023-03-29T05:48:06.948Z,3.30
2023-03-29T05:50:34.359Z,2.17
2023-03-29T05:53:08.479Z,2.80
2023-03-29T05:55:43.966Z,2.95
2023-03-29T05:58:19.173Z,3.65
2023-03-29T06:00:56.980Z,3.70
2023-03-29T06:03:28.281Z,3.67
2023-03-29T06:06:15.774Z,3.45
2023-03-29T06:09:01.224Z,3.42
2023-03-29T06:11:36.130Z,3.67
2023-03-29T06:14:03.128Z,4.47
2023-03-29T06:16:30.881Z,6.78
2023-03-29T06:19:07.122Z,5.63
2023-03-29T06:21:40.585Z,5.25
2023-03-29T06:24:10.714Z,3.40
2023-03-29T06:27:11.156Z,3.72
2023-03-29T06:29:38.383Z,2.83
2023-03-29T06:32:11.547Z,2.75
2023-03-29T06:34:38.745Z,2.90
2023-03-29T06:37:29.625Z,3.17
2023-03-29T06:39:58.263Z,2.92
2023-03-29T06:42:36.356Z,2.60
2023-03-29T06:45:29.340Z,2.65
2023-03-29T06:48:20.286Z,3.58
2023-03-29T06:51:02.636Z,2.40
2023-03-29T06:56:09.554Z,2.70
2023-03-29T06:58:46.195Z,2.40
2023-03-29T07:01:14.673Z,2.75
2023-03-29T07:03:41.621Z,2.60
2023-03-29T07:06:18.101Z,2.45
2023-03-29T07:08:52.603Z,2.70
2023-03-29T07:14:22.815Z,2.72
2023-03-29T07:17:15.458Z,2.63
2023-03-29T07:20:05.680Z,2.63
2023-03-29T07:22:37.127Z,2.65
2023-03-29T07:25:16.519Z,3.00
2023-03-29T07:27:44.080Z,2.55
2023-03-29T07:30:24.846Z,2.60
2023-03-29T07:33:12.456Z,2.97
2023-03-29T07:35:40.416Z,3.13
2023-03-29T07:38:11.528Z,2.90
2023-03-29T07:40:39.250Z,2.95
2023-03-29T07:43:09.377Z,2.65
2023-03-29T07:45:42.579Z,2.95
2023-03-29T07:48:14.965Z,2.67
2023-03-29T07:50:55.425Z,2.50
2023-03-29T07:53:33.569Z,2.38
2023-03-29T07:56:27.622Z,2.25
2023-03-29T07:59:10.011Z,2.17
2023-03-29T08:01:39.515Z,2.60
2023-03-29T08:04:07.652Z,2.50
2023-03-29T08:09:19.689Z,2.30
2023-03-29T08:11:47.624Z,2.28
2023-03-29T08:14:24.151Z,2.72
2023-03-29T08:16:54.730Z,2.40
2023-03-29T08:22:17.677Z,2.20
2023-03-29T08:27:26.513Z,2.38
2023-03-29T08:29:56.761Z,2.10
2023-03-29T08:32:52.946Z,2.20
2023-03-29T08:35:22.820Z,2.20
2023-03-29T08:37:59.216Z,2.00
2023-03-29T08:40:34.314Z,2.15
2023-03-29T08:43:16.425Z,1.95
2023-03-29T08:49:05.758Z,2.30
2023-03-29T08:51:44.414Z,2.10
2023-03-29T08:54:31.573Z,1.98
2023-03-29T08:57:21.359Z,2.35
2023-03-29T08:59:59.792Z,2.55
2023-03-29T09:02:35.581Z,2.20
2023-03-29T09:05:26.098Z,2.08
2023-03-29T09:08:08.365Z,2.00
2023-03-29T09:10:48.806Z,2.00
2023-03-29T09:16:26.142Z,2.13
2023-03-29T09:19:39.277Z,2.25
2023-03-29T09:22:44.487Z,1.90
2023-03-29T09:25:20.277Z,1.80
2023-03-29T09:28:08.713Z,1.95
2023-03-29T09:31:18.675Z,1.85
2023-03-29T09:34:16.497Z,1.90
2023-03-29T09:36:54.918Z,1.80
2023-03-29T09:39:25.851Z,2.00
2023-03-29T09:44:54.181Z,1.73
2023-03-29T09:47:27.945Z,2.47
2023-03-29T09:50:31.061Z,2.17
2023-03-29T09:53:14.245Z,2.22
2023-03-29T09:55:44.082Z,2.33
2023-03-29T09:58:16.767Z,2.30
2023-03-29T10:00:48.163Z,2.70
2023-03-29T10:03:26.534Z,2.47
2023-03-29T10:06:00.878Z,1.95
2023-03-29T10:09:06.326Z,2.30
2023-03-29T10:11:43.387Z,2.70
2023-03-29T10:15:03.294Z,2.47
2023-03-29T10:17:43.840Z,2.42
2023-03-29T10:20:22.035Z,2.42
2023-03-29T10:22:56.560Z,2.38
2023-03-29T10:25:43.897Z,2.13
2023-03-29T10:28:23.758Z,2.42
2023-03-29T10:33:53.278Z,2.20
2023-03-29T10:36:28.481Z,2.05
2023-03-29T10:39:14.322Z,2.10
2023-03-29T10:41:56.058Z,2.22
2023-03-29T10:44:38.806Z,2.08
2023-03-29T10:52:56.279Z,2.22
2023-03-29T10:56:05.035Z,2.42
2023-03-29T10:59:02.674Z,2.30
2023-03-29T11:01:51.571Z,2.30
2023-03-29T11:04:50.568Z,2.28
2023-03-29T11:08:00.434Z,2.47
2023-03-29T11:10:34.199Z,2.30
2023-03-29T11:13:42.430Z,2.67
2023-03-29T11:16:48.171Z,2.20
2023-03-29T11:19:53.891Z,2.33
2023-03-29T11:22:32.361Z,2.92
2023-03-29T11:25:06.827Z,2.60
2023-03-29T11:28:12.452Z,2.45
2023-03-29T11:30:48.177Z,3.20
2023-03-29T11:33:36.955Z,2.72
2023-03-29T11:36:26.086Z,2.88
2023-03-29T11:39:05.788Z,2.45
2023-03-29T11:41:41.956Z,2.97
2023-03-29T11:44:25.343Z,2.50
2023-03-29T11:47:28.022Z,2.53
2023-03-29T11:50:18.129Z,2.65
2023-03-29T11:53:09.087Z,2.95
2023-03-29T11:55:50.996Z,2.75
2023-03-29T11:58:32.491Z,2.50
2023-03-29T12:04:07.096Z,2.50
2023-03-29T12:06:56.925Z,2.45
2023-03-29T12:10:00.984Z,2.65
2023-03-29T12:12:52.943Z,2.85
2023-03-29T12:15:29.749Z,2.75
2023-03-29T12:18:30.251Z,2.63
2023-03-29T12:21:05.342Z,3.08
2023-03-29T12:23:41.505Z,2.90
2023-03-29T12:26:40.760Z,2.88
2023-03-29T12:29:18.277Z,3.13
2023-03-29T12:31:49.338Z,2.97
2023-03-29T12:34:55.856Z,3.45
2023-03-29T12:37:51.690Z,2.78
2023-03-29T12:40:28.590Z,2.95
2023-03-29T12:43:08.892Z,2.78
2023-03-29T12:45:43.267Z,3.22
2023-03-29T12:48:24.704Z,3.00
2023-03-29T12:51:11.227Z,3.63
2023-03-29T12:53:54.178Z,7.93
2023-03-29T12:56:39.772Z,5.38
2023-03-29T12:59:10.399Z,9.85
2023-03-29T13:01:39.625Z,4.05
2023-03-29T13:04:17.896Z,8.25
2023-03-29T13:09:45.844Z,6.50
2023-03-29T13:12:23.209Z,5.75
2023-03-29T13:14:56.522Z,6.05
2023-03-29T13:17:37.366Z,6.43
2023-03-29T13:20:52.836Z,8.02
2023-03-29T13:23:58.834Z,7.03
2023-03-29T13:26:48.933Z,5.43
2023-03-29T13:29:52.417Z,6.63
2023-03-29T13:32:43.923Z,6.30
2023-03-29T13:35:21.566Z,5.00
2023-03-29T13:38:26.019Z,5.10
2023-03-29T13:41:03.655Z,5.65
2023-03-29T13:43:52.742Z,4.05
2023-03-29T13:46:24.356Z,4.90
2023-03-29T13:49:08.491Z,10.23
2023-03-29T13:51:56.122Z,10.25
2023-03-29T13:54:33.022Z,5.05
2023-03-29T13:57:16.023Z,32.88
2023-03-29T14:00:08.265Z,25.80
2023-03-29T14:05:49.894Z,14.77
2023-03-29T14:08:41.107Z,4.80
2023-03-29T14:15:06.384Z,18.45
2023-03-29T14:17:47.538Z,12.43
2023-03-29T14:20:18.222Z,9.63
2023-03-29T14:22:49.435Z,4.80
2023-03-29T14:25:25.790Z,3.10
2023-03-29T14:28:02.022Z,16.77
2023-03-29T14:30:39.338Z,23.20
2023-03-29T14:33:13.304Z,7.28
2023-03-29T14:35:46.635Z,25.58
2023-03-29T14:38:26.594Z,47.45
2023-03-29T14:41:11.181Z,40.38
2023-03-29T14:43:51.211Z,65.30
2023-03-29T14:46:29.024Z,85.13
2023-03-29T14:48:59.536Z,105.65
2023-03-29T14:51:31.392Z,81.45
2023-03-29T14:54:12.233Z,53.20
2023-03-29T14:59:35.227Z,25.30
2023-03-29T15:02:27.023Z,22.60
2023-03-29T15:04:57.696Z,16.73
2023-03-29T15:07:28.783Z,15.55
2023-03-29T15:09:57.676Z,12.90
2023-03-29T15:12:25.049Z,3.53
2023-03-29T15:14:56.676Z,4.47
2023-03-29T15:17:50.236Z,3.60
2023-03-29T15:20:35.948Z,5.95
2023-03-29T15:23:28.707Z,6.53
2023-03-29T15:26:41.846Z,4.90
2023-03-29T15:31:58.530Z,5.57
2023-03-29T15:34:33.762Z,3.58
2023-03-29T15:37:02.769Z,4.20
2023-03-29T15:39:33.436Z,3.28
2023-03-29T15:42:04.737Z,3.70
2023-03-29T15:44:40.141Z,3.63
2023-03-29T15:47:17.855Z,3.28
2023-03-29T15:49:47.550Z,3.15
2023-03-29T15:52:36.692Z,3.45
2023-03-29T15:55:16.193Z,2.85
2023-03-29T15:57:50.439Z,3.40
2023-03-29T16:00:19.968Z,2.67
2023-03-29T16:02:49.751Z,3.17
2023-03-29T16:05:24.024Z,3.95
2023-03-29T16:07:57.436Z,3.88
2023-03-29T16:10:29.381Z,2.63
2023-03-29T16:12:56.816Z,3.60
2023-03-29T16:15:33.102Z,3.97
2023-03-29T16:18:00.266Z,3.38
2023-03-29T16:23:19.862Z,3.00
2023-03-29T16:25:54.148Z,2.70
2023-03-29T16:28:23.788Z,2.97
2023-03-29T16:30:53.634Z,2.97
2023-03-29T16:33:20.588Z,2.83
2023-03-29T16:35:56.131Z,2.80
2023-03-29T16:38:27.993Z,3.00
2023-03-29T16:40:56.755Z,2.67
2023-03-29T16:43:26.391Z,3.10
2023-03-29T16:45:55.715Z,3.00
2023-03-29T16:48:31.978Z,2.90
2023-03-29T16:51:02.576Z,2.70
2023-03-29T16:53:32.389Z,2.78
2023-03-29T16:56:12.504Z,3.25
2023-03-29T16:58:48.009Z,2.97
2023-03-29T17:03:56.243Z,3.25
2023-03-29T17:06:26.937Z,2.80
2023-03-29T17:08:54.100Z,3.42
2023-03-29T17:11:24.518Z,3.70
2023-03-29T17:14:18.427Z,2.90
2023-03-29T17:16:46.580Z,3.20
2023-03-29T17:19:13.485Z,3.10
2023-03-29T17:21:40.524Z,2.80
2023-03-29T17:24:07.947Z,3.47
2023-03-29T17:26:35.016Z,3.08
2023-03-29T17:29:05.714Z,2.95
2023-03-29T17:31:35.073Z,3.40
2023-03-29T17:34:05.391Z,3.50
2023-03-29T17:36:34.109Z,3.40
2023-03-29T17:39:05.174Z,3.13
2023-03-29T17:41:38.005Z,2.95
2023-03-29T17:44:07.490Z,3.97
2023-03-29T17:46:41.574Z,3.30
2023-03-29T17:49:08.552Z,3.40
2023-03-29T17:51:37.631Z,3.25
2023-03-29T17:54:06.027Z,2.85
2023-03-29T17:56:34.224Z,3.20
2023-03-29T17:59:01.558Z,2.88
2023-03-29T18:01:32.129Z,2.88
2023-03-29T18:03:59.531Z,2.83
2023-03-29T18:06:32.198Z,2.92
2023-03-29T18:11:46.174Z,3.05
2023-03-29T18:14:17.495Z,2.65
2023-03-29T18:16:52.422Z,3.17
2023-03-29T18:19:27.910Z,2.70
2023-03-29T18:24:40.561Z,3.05
2023-03-29T18:27:21.722Z,2.38
2023-03-29T18:30:00.813Z,3.10
2023-03-29T18:32:34.191Z,2.67
2023-03-29T18:35:13.348Z,2.58
2023-03-29T18:37:47.341Z,2.83
2023-03-29T18:40:15.856Z,2.88
2023-03-29T18:42:46.141Z,3.05
2023-03-29T18:45:18.473Z,3.20
2023-03-29T18:47:52.652Z,2.65
2023-03-29T18:50:19.987Z,2.95
2023-03-29T18:52:47.056Z,2.85
2023-03-29T18:55:16.952Z,3.03
2023-03-29T18:57:50.165Z,2.97
2023-03-29T19:03:35.301Z,2.83
2023-03-29T19:08:42.525Z,3.00
2023-03-29T19:11:14.688Z,3.08
2023-03-29T19:13:58.524Z,2.85
2023-03-29T19:16:34.193Z,3.05
2023-03-29T19:19:09.244Z,2.70
2023-03-29T19:21:45.483Z,2.83
2023-03-29T19:24:27.272Z,2.50
2023-03-29T19:27:00.905Z,2.50
2023-03-29T19:29:37.011Z,2.42
2023-03-29T19:32:11.147Z,2.83
2023-03-29T19:34:39.265Z,2.65
2023-03-29T19:37:17.409Z,3.20
2023-03-29T19:39:46.474Z,2.70
2023-03-29T19:42:14.825Z,3.00
2023-03-29T19:44:41.844Z,2.72
2023-03-29T19:47:09.818Z,3.20
2023-03-29T19:49:49.040Z,2.70
2023-03-29T19:52:17.293Z,2.60
2023-03-29T19:54:51.414Z,2.90
2023-03-29T19:57:20.354Z,3.15
2023-03-29T19:59:56.507Z,2.70
2023-03-29T20:02:30.809Z,2.67
2023-03-29T20:05:02.703Z,2.90
2023-03-29T20:07:29.994Z,2.92
2023-03-29T20:10:08.513Z,2.50
2023-03-29T20:12:41.053Z,3.00
2023-03-29T20:15:19.648Z,2.78
2023-03-29T20:18:08.276Z,3.00
2023-03-29T20:20:48.832Z,3.05
2023-03-29T20:23:24.971Z,2.72
2023-03-29T20:25:53.970Z,2.60
2023-03-29T20:28:21.325Z,2.53
2023-03-29T20:30:55.070Z,2.50
2023-03-29T20:33:22.347Z,3.20
2023-03-29T20:35:51.073Z,2.78
2023-03-29T20:38:34.956Z,2.97
2023-03-29T20:41:11.996Z,2.97
2023-03-29T20:43:50.962Z,2.78
2023-03-29T20:46:23.077Z,2.55
2023-03-29T20:49:02.973Z,2.60
2023-03-29T20:51:47.389Z,2.65
2023-03-29T20:54:15.805Z,2.78
2023-03-29T20:56:46.042Z,2.90
2023-03-29T20:59:23.393Z,3.03
2023-03-29T21:01:58.483Z,2.80
2023-03-29T21:04:28.285Z,2.67
2023-03-29T21:06:57.532Z,2.50
2023-03-29T21:09:31.551Z,2.55
2023-03-29T21:12:04.638Z,2.55
2023-03-29T21:14:33.411Z,2.67
2023-03-29T21:17:04.837Z,2.60
2023-03-29T21:19:33.745Z,2.35
2023-03-29T21:22:18.973Z,2.72
2023-03-29T21:24:57.171Z,2.58
2023-03-29T21:27:29.213Z,2.50
2023-03-29T21:30:04.078Z,2.90
2023-03-29T21:32:32.840Z,2.40
2023-03-29T21:34:59.874Z,3.08
2023-03-29T21:37:28.498Z,2.33
2023-03-29T21:39:58.321Z,2.38
2023-03-29T21:42:32.135Z,2.55
2023-03-29T21:45:08.211Z,2.30
2023-03-29T21:47:52.369Z,2.30
2023-03-29T21:50:26.852Z,2.10
2023-03-29T21:52:56.517Z,2.60
2023-03-29T21:55:32.217Z,2.25
2023-03-29T21:58:13.242Z,2.30
2023-03-29T22:00:45.684Z,2.38
2023-03-29T22:06:07.430Z,2.00
2023-03-29T22:09:17.483Z,2.70
2023-03-29T22:11:46.674Z,2.00
2023-03-29T22:14:40.531Z,1.95
2023-03-29T22:17:13.901Z,2.20
2023-03-29T22:19:42.318Z,2.30
2023-03-29T22:22:36.190Z,1.92
2023-03-29T22:25:05.561Z,2.17
2023-03-29T22:27:42.521Z,1.90
2023-03-29T22:30:19.615Z,2.00
2023-03-29T22:32:49.513Z,1.75
2023-03-29T22:35:16.532Z,2.45
2023-03-29T22:37:44.502Z,1.70
2023-03-29T22:40:14.986Z,1.85
2023-03-29T22:42:42.349Z,1.83
2023-03-29T22:45:09.872Z,1.98
2023-03-29T22:47:36.797Z,1.80
2023-03-29T22:50:04.114Z,1.90
2023-03-29T22:52:31.188Z,1.90
2023-03-29T22:55:05.675Z,1.70
2023-03-29T22:57:38.911Z,1.70
2023-03-29T23:00:11.089Z,1.63
2023-03-29T23:02:38.261Z,1.60
2023-03-29T23:05:09.018Z,1.88
2023-03-29T23:07:38.977Z,1.80
2023-03-29T23:10:21.844Z,1.60
2023-03-29T23:13:01.906Z,2.00
2023-03-29T23:15:34.153Z,1.65
2023-03-29T23:18:20.724Z,1.67
2023-03-29T23:20:51.980Z,1.98
2023-03-29T23:23:23.216Z,1.40
2023-03-29T23:25:51.972Z,1.60
2023-03-29T23:28:28.647Z,1.63
2023-03-29T23:31:15.934Z,1.50
2023-03-29T23:33:46.738Z,1.90
2023-03-29T23:36:23.256Z,1.40
2023-03-29T23:38:50.359Z,1.65
2023-03-29T23:41:18.831Z,1.40
2023-03-29T23:44:08.107Z,1.50
2023-03-29T23:46:42.215Z,1.65
2023-03-29T23:49:10.350Z,1.70
2023-03-29T23:51:42.147Z,1.60
2023-03-29T23:54:15.875Z,1.38
2023-03-29T23:56:46.969Z,1.60
2023-03-29T23:59:18.870Z,1.40
